Time;durP1;ratioP1;P1;durP2;ratioP2;P2;SDS_P1;SDS_P2;PMS_P1;PMS_P2;Temp;Humidity;BMP_temperature;BMP_pressure;BME280_temperature;BME280_humidity;BME280_pressure;Samples;Min_cycle;Max_cycle;Signal;HPM_P1;HPM_P2
2023/10/12 00:00:25;;;;;;;5.65;1.60;;;14.50;99.90;;;;;;5103804;28;20109;-73
2023/10/12 00:02:52;;;;;;;7.20;1.73;;;14.50;99.90;;;;;;5105505;28;20032;-74
2023/10/12 00:05:18;;;;;;;10.73;2.00;;;14.50;99.90;;;;;;5104005;28;20020;-73
2023/10/12 00:07:49;;;;;;;8.95;2.22;;;14.40;99.90;;;;;;5105088;28;20705;-71
2023/10/12 00:12:44;;;;;;;8.13;1.73;;;14.40;99.90;;;;;;5105059;28;20032;-71
2023/10/12 00:17:50;;;;;;;15.80;2.00;;;14.20;99.90;;;;;;5105206;28;20032;-72
2023/10/12 00:22:52;;;;;;;14.20;1.45;;;14.00;99.90;;;;;;5104674;28;20028;-72
2023/10/12 00:25:18;;;;;;;17.75;2.13;;;13.90;99.90;;;;;;5104900;28;20035;-72
2023/10/12 00:27:44;;;;;;;12.88;1.80;;;13.90;99.90;;;;;;5103294;28;20095;-72
2023/10/12 00:30:12;;;;;;;14.88;1.98;;;13.80;99.90;;;;;;5104828;28;20739;-73
2023/10/12 00:32:38;;;;;;;15.48;2.67;;;13.80;99.90;;;;;;5104541;28;20154;-72
2023/10/12 00:35:04;;;;;;;20.20;2.10;;;13.80;99.90;;;;;;5104312;28;20044;-73
2023/10/12 00:37:32;;;;;;;12.00;1.90;;;13.70;99.90;;;;;;5104655;28;20038;-72
2023/10/12 00:39:58;;;;;;;15.07;2.38;;;13.70;99.90;;;;;;5104205;28;20055;-74
2023/10/12 00:42:33;;;;;;;17.58;1.83;;;13.60;99.90;;;;;;5104262;28;20058;-72
2023/10/12 00:45:10;;;;;;;11.63;2.17;;;13.50;99.90;;;;;;5104691;28;20016;-73
2023/10/12 00:47:48;;;;;;;15.82;2.17;;;13.60;99.90;;;;;;5102846;28;20020;-72
2023/10/12 00:50:15;;;;;;;14.45;2.67;;;13.50;99.90;;;;;;5104179;28;20023;-73
2023/10/12 00:53:02;;;;;;;10.02;1.98;;;13.40;99.90;;;;;;5104014;28;20024;-72
2023/10/12 00:55:37;;;;;;;16.73;2.05;;;13.40;99.90;;;;;;5103635;28;20048;-72
2023/10/12 00:58:08;;;;;;;18.50;2.40;;;13.30;99.90;;;;;;5102529;28;20032;-71
2023/10/12 01:00:44;;;;;;;18.73;2.15;;;13.40;99.90;;;;;;5104008;28;20024;-72
2023/10/12 01:06:12;;;;;;;17.38;2.53;;;13.40;99.90;;;;;;5104123;28;20032;-70
2023/10/12 01:08:43;;;;;;;9.23;2.40;;;13.40;99.90;;;;;;5103730;28;20024;-70
2023/10/12 01:11:17;;;;;;;14.00;2.28;;;13.30;99.90;;;;;;5103623;28;20020;-72
2023/10/12 01:13:43;;;;;;;15.77;2.78;;;13.40;99.90;;;;;;5104168;28;20024;-71
2023/10/12 01:16:20;;;;;;;16.63;2.85;;;13.40;99.90;;;;;;5103602;28;20130;-71
2023/10/12 01:18:46;;;;;;;15.32;2.53;;;13.40;99.90;;;;;;5103797;28;20584;-69
2023/10/12 01:21:12;;;;;;;17.35;2.30;;;13.40;99.90;;;;;;5101832;28;20036;-71
2023/10/12 01:23:41;;;;;;;14.52;2.67;;;13.40;99.90;;;;;;5103261;28;20031;-69
2023/10/12 01:26:11;;;;;;;14.43;2.55;;;13.50;99.90;;;;;;5103296;28;20029;-70
2023/10/12 01:28:38;;;;;;;16.98;2.55;;;13.50;99.90;;;;;;5103509;28;20020;-71
2023/10/12 01:31:05;;;;;;;12.02;2.58;;;13.50;99.90;;;;;;5102763;28;20019;-71
2023/10/12 01:33:31;;;;;;;13.73;2.40;;;13.50;99.90;;;;;;5103421;28;20019;-69
2023/10/12 01:35:57;;;;;;;10.30;2.42;;;13.50;99.90;;;;;;5102643;28;20044;-71
2023/10/12 01:38:23;;;;;;;11.50;2.22;;;13.50;99.90;;;;;;5103076;28;20016;-70
2023/10/12 01:43:17;;;;;;;14.98;2.80;;;13.40;99.90;;;;;;5103489;28;20127;-70
2023/10/12 01:45:58;;;;;;;11.15;2.53;;;13.40;99.90;;;;;;5102898;28;20429;-69
2023/10/12 01:48:29;;;;;;;19.38;2.92;;;13.40;99.90;;;;;;5101805;28;20035;-70
2023/10/12 01:50:56;;;;;;;20.30;3.03;;;13.40;99.90;;;;;;5101369;28;20016;-71
2023/10/12 01:55:48;;;;;;;14.35;2.60;;;13.40;99.90;;;;;;5103131;28;20060;-69
2023/10/12 01:58:18;;;;;;;14.15;2.70;;;13.30;99.90;;;;;;5102564;28;20051;-71
2023/10/12 02:00:51;;;;;;;16.83;3.08;;;13.30;99.90;;;;;;5102794;28;20079;-70
2023/10/12 02:03:31;;;;;;;16.08;2.85;;;13.30;99.90;;;;;;5103266;28;20024;-72
2023/10/12 02:06:02;;;;;;;14.38;2.85;;;13.30;99.90;;;;;;5102385;28;20016;-71
2023/10/12 02:08:39;;;;;;;19.77;3.17;;;13.30;99.90;;;;;;5102562;28;20028;-70
2023/10/12 02:11:11;;;;;;;15.38;2.90;;;13.30;99.90;;;;;;5102647;28;20035;-72
2023/10/12 02:13:38;;;;;;;22.08;2.38;;;13.30;99.90;;;;;;5102379;28;20028;-71
2023/10/12 02:16:04;;;;;;;14.68;2.50;;;13.30;99.90;;;;;;5102219;28;20063;-71
2023/10/12 02:18:31;;;;;;;15.75;3.28;;;13.30;99.90;;;;;;5101989;28;20081;-70
2023/10/12 02:23:39;;;;;;;21.42;2.85;;;13.30;99.90;;;;;;5102752;28;20028;-70
2023/10/12 02:26:28;;;;;;;24.80;2.65;;;13.20;99.90;;;;;;5102367;28;20097;-69
2023/10/12 02:28:58;;;;;;;17.33;2.80;;;13.20;99.90;;;;;;5102422;28;20024;-71
2023/10/12 02:31:28;;;;;;;23.17;3.10;;;13.20;99.90;;;;;;5102542;28;20388;-72
2023/10/12 02:33:55;;;;;;;14.82;2.55;;;13.20;99.90;;;;;;5102325;28;20032;-70
2023/10/12 02:36:21;;;;;;;25.23;3.03;;;13.20;99.90;;;;;;5101950;28;20083;-69
2023/10/12 02:38:47;;;;;;;18.40;2.75;;;13.20;99.90;;;;;;5102426;28;20028;-73
2023/10/12 02:41:13;;;;;;;23.58;2.90;;;13.10;99.90;;;;;;5101645;28;20099;-71
2023/10/12 02:43:50;;;;;;;20.35;2.70;;;13.20;99.90;;;;;;5102073;28;20034;-72
2023/10/12 02:46:23;;;;;;;16.67;3.28;;;13.20;99.90;;;;;;5102185;28;20364;-71
2023/10/12 02:48:52;;;;;;;22.90;3.72;;;13.20;99.90;;;;;;5102065;28;20384;-73
2023/10/12 02:51:18;;;;;;;19.98;3.70;;;13.10;99.90;;;;;;5101923;28;20027;-72
2023/10/12 02:53:47;;;;;;;22.25;4.28;;;13.10;99.90;;;;;;5100893;28;20016;-73
2023/10/12 02:56:13;;;;;;;23.13;4.25;;;13.10;99.90;;;;;;5100431;28;20044;-72
2023/10/12 02:58:44;;;;;;;18.77;4.30;;;13.10;99.90;;;;;;5100518;28;20031;-72
2023/10/12 03:01:14;;;;;;;26.80;4.20;;;13.10;99.90;;;;;;5101811;28;20035;-71
2023/10/12 03:03:48;;;;;;;24.13;4.50;;;13.10;99.90;;;;;;5101647;28;20027;-74
2023/10/12 03:06:20;;;;;;;26.73;4.80;;;13.10;99.90;;;;;;5102269;28;20046;-73
2023/10/12 03:09:02;;;;;;;24.27;4.88;;;13.00;99.90;;;;;;5102325;28;20059;-72
2023/10/12 03:11:29;;;;;;;25.33;4.47;;;13.00;99.90;;;;;;5100680;28;20118;-72
2023/10/12 03:14:13;;;;;;;24.23;4.50;;;13.10;99.90;;;;;;5100684;28;20020;-71
2023/10/12 03:16:43;;;;;;;25.63;4.65;;;13.10;99.90;;;;;;5101895;28;20020;-72
2023/10/12 03:19:25;;;;;;;27.80;4.57;;;13.00;99.90;;;;;;5101416;28;20035;-71
2023/10/12 03:21:52;;;;;;;25.05;4.78;;;13.00;99.90;;;;;;5100718;28;20036;-71
2023/10/12 03:24:38;;;;;;;31.45;5.20;;;13.00;99.90;;;;;;5101292;28;20024;-73
2023/10/12 03:29:29;;;;;;;30.45;5.00;;;13.00;99.90;;;;;;5105258;28;20024;-73
2023/10/12 03:31:58;;;;;;;22.30;4.22;;;13.00;99.90;;;;;;5106012;28;20066;-71
2023/10/12 03:34:46;;;;;;;27.63;4.40;;;13.00;99.90;;;;;;5105734;28;20055;-71
2023/10/12 03:37:14;;;;;;;26.73;4.57;;;13.00;99.90;;;;;;5105239;28;20060;-72
2023/10/12 03:45:07;;;;;;;17.65;4.10;;;12.90;99.90;;;;;;5105149;28;20024;-73
2023/10/12 03:48:02;;;;;;;28.67;4.85;;;12.90;99.90;;;;;;5105731;28;20095;-71
2023/10/12 03:50:20;;;;;;;25.33;4.72;;;12.90;99.90;;;;;;5104848;28;20478;-72
2023/10/12 03:52:52;;;;;;;22.30;4.00;;;12.90;99.90;;;;;;5104201;28;20028;-72
2023/10/12 03:55:28;;;;;;;23.35;4.70;;;12.90;99.90;;;;;;5104239;28;20051;-72
2023/10/12 03:58:05;;;;;;;15.50;4.00;;;12.90;99.90;;;;;;5105636;28;20058;-72
2023/10/12 04:00:47;;;;;;;23.55;4.30;;;12.80;99.90;;;;;;5105289;28;20066;-73
2023/10/12 04:03:18;;;;;;;20.15;3.78;;;12.80;99.90;;;;;;5104109;28;20423;-73
2023/10/12 04:06:06;;;;;;;27.60;3.92;;;12.80;99.90;;;;;;5104820;28;20028;-70
2023/10/12 04:11:46;;;;;;;20.10;3.70;;;12.80;99.90;;;;;;5105404;28;20027;-72
2023/10/12 04:21:17;;;;;;;27.73;3.28;;;12.70;99.90;;;;;;5104337;28;20028;-71
2023/10/12 04:28:58;;;;;;;20.67;3.13;;;12.70;99.90;;;;;;5104362;28;20042;-74
2023/10/12 04:36:44;;;;;;;22.30;3.95;;;12.60;99.90;;;;;;5104555;28;20217;-73
2023/10/12 04:39:27;;;;;;;18.45;3.38;;;12.60;99.90;;;;;;5102776;28;20035;-72
2023/10/12 04:46:59;;;;;;;20.80;3.88;;;12.60;99.90;;;;;;5104756;28;20020;-72
2023/10/12 04:57:33;;;;;;;14.38;3.42;;;12.50;99.90;;;;;;5103944;28;20056;-73
2023/10/12 05:02:58;;;;;;;19.30;3.08;;;12.50;99.90;;;;;;5100132;28;20474;-70
2023/10/12 05:07:58;;;;;;;14.80;2.72;;;12.50;99.90;;;;;;5104473;28;20032;-71
2023/10/12 05:10:31;;;;;;;19.05;2.88;;;12.50;99.90;;;;;;5100728;28;20081;-71
2023/10/12 05:13:04;;;;;;;13.32;3.00;;;12.50;99.90;;;;;;5102791;28;20034;-71
2023/10/12 05:15:42;;;;;;;20.38;3.28;;;12.40;99.90;;;;;;5102138;28;20028;-72
2023/10/12 05:18:17;;;;;;;16.15;3.33;;;12.40;99.90;;;;;;5099387;28;20093;-71
2023/10/12 05:20:44;;;;;;;17.73;3.25;;;12.40;99.90;;;;;;5103426;28;20024;-70
2023/10/12 05:23:11;;;;;;;27.92;3.60;;;12.40;99.90;;;;;;5103525;28;20054;-70
2023/10/12 05:28:17;;;;;;;16.10;3.05;;;12.40;99.90;;;;;;5103196;28;20755;-71
2023/10/12 05:30:54;;;;;;;18.25;3.17;;;12.40;99.90;;;;;;5103750;28;20020;-72
2023/10/12 05:35:57;;;;;;;21.73;3.70;;;12.30;99.90;;;;;;5102831;28;20036;-73
2023/10/12 05:38:34;;;;;;;31.27;4.82;;;12.30;99.90;;;;;;5102890;28;20032;-73
2023/10/12 05:41:00;;;;;;;20.67;4.50;;;12.30;99.90;;;;;;5102307;28;20032;-70
2023/10/12 05:43:29;;;;;;;25.00;5.05;;;12.30;99.90;;;;;;5100215;28;20020;-73
2023/10/12 05:45:55;;;;;;;28.52;5.10;;;12.30;99.90;;;;;;5102773;28;20016;-71
2023/10/12 05:48:20;;;;;;;23.98;5.28;;;12.30;99.90;;;;;;5103235;28;20020;-70
2023/10/12 05:50:49;;;;;;;17.90;5.28;;;12.30;99.90;;;;;;5101360;28;20035;-68
2023/10/12 05:53:16;;;;;;;29.85;6.53;;;12.30;99.90;;;;;;5101374;28;20373;-68
2023/10/12 05:55:43;;;;;;;29.65;6.60;;;12.30;99.90;;;;;;5102517;28;20074;-69
2023/10/12 05:58:11;;;;;;;24.63;6.65;;;12.20;99.90;;;;;;5102553;28;20016;-71
2023/10/12 06:00:44;;;;;;;21.92;6.82;;;12.30;99.90;;;;;;5102785;28;20362;-72
2023/10/12 06:03:15;;;;;;;22.33;7.47;;;12.20;99.90;;;;;;5102853;28;20031;-74
2023/10/12 06:05:44;;;;;;;29.02;7.97;;;12.20;99.90;;;;;;5101087;28;20091;-72
2023/10/12 06:08:10;;;;;;;33.25;7.68;;;12.20;99.90;;;;;;5099263;28;20087;-70
2023/10/12 06:10:43;;;;;;;34.85;9.60;;;12.20;99.90;;;;;;5100727;28;20548;-71
2023/10/12 06:13:12;;;;;;;32.40;9.38;;;12.20;99.90;;;;;;5101369;28;20020;-69
2023/10/12 06:15:42;;;;;;;30.92;9.05;;;12.20;99.90;;;;;;5101595;28;20044;-71
2023/10/12 06:18:11;;;;;;;31.67;9.32;;;12.20;99.90;;;;;;5101773;28;20108;-70
2023/10/12 06:20:41;;;;;;;28.52;9.48;;;12.20;99.90;;;;;;5100514;28;20035;-70
2023/10/12 06:23:14;;;;;;;37.80;9.57;;;12.20;99.90;;;;;;5102522;28;20031;-71
2023/10/12 06:25:43;;;;;;;32.25;10.10;;;12.20;99.90;;;;;;5102557;28;20035;-72
2023/10/12 06:28:17;;;;;;;33.30;11.02;;;12.20;99.90;;;;;;5102217;28;20685;-73
2023/10/12 06:30:46;;;;;;;31.02;12.93;;;12.20;99.90;;;;;;5102183;28;20115;-72
2023/10/12 06:33:15;;;;;;;39.05;12.63;;;12.20;99.90;;;;;;5101758;28;20047;-72
2023/10/12 06:36:00;;;;;;;39.15;13.23;;;12.30;99.90;;;;;;5102137;28;20036;-72
2023/10/12 06:44:22;;;;;;;38.00;14.40;;;12.30;99.90;;;;;;5100509;28;20032;-71
2023/10/12 06:46:49;;;;;;;42.20;15.30;;;12.30;99.90;;;;;;5102403;28;20020;-72
2023/10/12 06:49:22;;;;;;;39.35;14.82;;;12.30;99.90;;;;;;5100830;28;20040;-71
2023/10/12 06:51:54;;;;;;;44.63;15.85;;;12.30;99.90;;;;;;5102412;28;20157;-70
2023/10/12 06:54:33;;;;;;;42.47;13.93;;;12.30;99.90;;;;;;5100489;28;20046;-70
2023/10/12 07:02:24;;;;;;;39.00;12.55;;;12.30;99.90;;;;;;5101375;28;20023;-71
2023/10/12 07:04:54;;;;;;;40.35;13.18;;;12.30;99.90;;;;;;5100758;28;20046;-71
2023/10/12 07:07:29;;;;;;;38.10;12.82;;;12.30;99.90;;;;;;5101503;28;20027;-71
2023/10/12 07:12:45;;;;;;;42.25;11.88;;;12.30;99.90;;;;;;5102002;28;20020;-72
2023/10/12 07:15:22;;;;;;;33.28;12.60;;;12.30;99.90;;;;;;5101242;28;20016;-72
2023/10/12 07:17:50;;;;;;;38.15;12.75;;;12.30;99.90;;;;;;5101582;28;20458;-69
2023/10/12 07:20:40;;;;;;;30.30;10.95;;;12.20;99.90;;;;;;5100469;28;20032;-69
2023/10/12 07:23:18;;;;;;;37.63;12.10;;;12.30;99.90;;;;;;5101083;28;20024;-70
2023/10/12 07:25:48;;;;;;;36.70;12.23;;;12.30;99.90;;;;;;5101651;28;20422;-71
2023/10/12 07:28:25;;;;;;;36.45;11.95;;;12.30;99.90;;;;;;5101398;28;20027;-70
2023/10/12 07:33:36;;;;;;;36.50;10.55;;;12.40;99.90;;;;;;5100890;28;20088;-72
2023/10/12 07:36:17;;;;;;;39.50;10.38;;;12.50;99.90;;;;;;5100509;28;20060;-70
2023/10/12 07:38:55;;;;;;;30.17;9.70;;;12.50;99.90;;;;;;5099514;28;20035;-70
2023/10/12 07:41:33;;;;;;;40.17;10.00;;;12.60;99.90;;;;;;5100994;28;20024;-73
2023/10/12 07:43:59;;;;;;;31.33;9.15;;;12.70;99.90;;;;;;5098701;28;20030;-69
2023/10/12 07:46:25;;;;;;;34.63;9.65;;;12.90;99.90;;;;;;5100201;28;20079;-72
2023/10/12 07:48:51;;;;;;;29.33;8.45;;;13.00;99.90;;;;;;5101528;28;20023;-71
2023/10/12 07:51:30;;;;;;;27.25;8.63;;;13.10;99.90;;;;;;5099719;28;20563;-71
2023/10/12 07:54:00;;;;;;;22.60;7.30;;;13.20;99.90;;;;;;5101664;28;20054;-73
2023/10/12 07:56:34;;;;;;;22.88;6.57;;;13.30;99.90;;;;;;5101109;28;20104;-74
2023/10/12 07:59:00;;;;;;;25.58;6.63;;;13.40;99.90;;;;;;5101122;28;20024;-72
2023/10/12 08:03:59;;;;;;;20.15;6.03;;;13.50;99.90;;;;;;5101414;28;20024;-73
2023/10/12 08:09:04;;;;;;;20.00;5.57;;;13.50;99.90;;;;;;5101119;28;20031;-72
2023/10/12 08:11:31;;;;;;;22.13;5.63;;;13.60;99.90;;;;;;5100876;28;20039;-72
2023/10/12 08:14:09;;;;;;;15.07;4.82;;;13.60;99.90;;;;;;5101527;28;20024;-73
2023/10/12 08:16:40;;;;;;;19.60;4.75;;;13.70;99.90;;;;;;5103289;28;20500;-76
2023/10/12 08:21:38;;;;;;;20.98;4.57;;;13.80;99.90;;;;;;5104858;28;20095;-73
2023/10/12 08:29:21;;;;;;;28.67;9.07;;;13.80;99.90;;;;;;5104855;28;20059;-72
2023/10/12 08:31:47;;;;;;;13.48;4.25;;;13.90;99.90;;;;;;5103426;28;20050;-74
2023/10/12 08:34:41;;;;;;;13.77;3.58;;;13.90;99.90;;;;;;5103326;28;20047;-74
2023/10/12 08:39:50;;;;;;;16.77;3.30;;;14.00;99.90;;;;;;5104238;28;20486;-75
2023/10/12 08:44:58;;;;;;;11.30;2.70;;;14.00;99.90;;;;;;5104993;28;20059;-75
2023/10/12 08:52:39;;;;;;;20.67;6.50;;;14.20;99.90;;;;;;5103925;28;20082;-75
2023/10/12 08:55:12;;;;;;;17.45;2.72;;;14.30;99.90;;;;;;5103942;28;20039;-75
2023/10/12 08:57:48;;;;;;;17.20;2.63;;;14.40;99.90;;;;;;5102987;28;20024;-75
2023/10/12 09:00:24;;;;;;;23.58;3.28;;;14.50;99.90;;;;;;5104084;28;20583;-74
2023/10/12 09:02:58;;;;;;;17.00;2.90;;;14.50;99.90;;;;;;5103421;28;20027;-74
2023/10/12 09:05:25;;;;;;;18.67;2.43;;;14.60;99.90;;;;;;5104066;28;20030;-75
2023/10/12 09:11:13;;;;;;;15.63;3.20;;;14.70;99.90;;;;;;5091434;28;20512;-75
2023/10/12 09:13:45;;;;;;;18.98;3.33;;;14.80;99.90;;;;;;5103471;28;20028;-73
2023/10/12 09:16:14;;;;;;;15.25;2.60;;;14.90;99.90;;;;;;5101882;28;20065;-82
2023/10/12 09:18:43;;;;;;;16.83;2.90;;;14.90;99.90;;;;;;5102371;28;20087;-76
2023/10/12 09:23:49;;;;;;;15.10;2.85;;;14.80;99.90;;;;;;5103633;28;20549;-76
2023/10/12 09:26:15;;;;;;;14.77;2.78;;;14.80;99.90;;;;;;5101787;28;20024;-76
2023/10/12 09:31:48;;;;;;;12.57;2.67;;;14.80;99.90;;;;;;5103414;28;20051;-73
2023/10/12 09:36:37;;;;;;;13.27;1.90;;;14.80;99.90;;;;;;5102758;28;20035;-75
2023/10/12 09:39:11;;;;;;;13.75;2.33;;;14.80;99.90;;;;;;5101385;28;20024;-76
2023/10/12 09:41:39;;;;;;;11.00;1.65;;;14.80;99.90;;;;;;5102103;28;20027;-77
2023/10/12 09:44:07;;;;;;;15.77;2.47;;;14.80;99.90;;;;;;5101878;28;20123;-77
2023/10/12 09:46:36;;;;;;;25.05;2.17;;;14.80;99.90;;;;;;5103194;28;20046;-75
2023/10/12 09:49:06;;;;;;;20.08;2.72;;;14.70;99.90;;;;;;5103151;28;20024;-75
2023/10/12 09:51:45;;;;;;;11.73;1.88;;;14.70;99.90;;;;;;5100796;28;20463;-75
2023/10/12 09:54:21;;;;;;;16.10;2.20;;;14.70;99.90;;;;;;5102776;28;20058;-73
2023/10/12 09:56:57;;;;;;;15.02;2.33;;;14.70;99.90;;;;;;5101588;28;20412;-74
2023/10/12 09:59:29;;;;;;;14.77;2.50;;;14.80;99.90;;;;;;5101433;28;20046;-74
2023/10/12 10:02:27;;;;;;;18.80;2.67;;;14.80;99.90;;;;;;5102462;28;20024;-75
2023/10/12 10:04:46;;;;;;;21.98;2.50;;;14.80;99.90;;;;;;5102380;28;20872;-74
2023/10/12 10:07:25;;;;;;;23.27;2.55;;;14.90;99.90;;;;;;5102994;28;20118;-74
2023/10/12 10:09:54;;;;;;;16.77;2.05;;;14.90;99.90;;;;;;5103030;28;21389;-74
2023/10/12 10:12:22;;;;;;;12.57;1.92;;;14.90;99.90;;;;;;5102365;28;20028;-74
2023/10/12 10:15:10;;;;;;;11.23;2.40;;;15.00;99.90;;;;;;5102761;28;20042;-75
2023/10/12 10:17:36;;;;;;;14.65;1.88;;;15.00;99.90;;;;;;5102576;28;20028;-74
2023/10/12 10:21:11;;;;;;;14.95;3.10;;;15.10;99.90;;;;;;5102418;28;20069;-75
2023/10/12 10:23:11;;;;;;;14.23;2.08;;;15.10;99.90;;;;;;5094867;28;20080;-74
2023/10/12 10:25:50;;;;;;;16.42;2.80;;;15.20;99.90;;;;;;5102287;28;20024;-74
2023/10/12 10:28:25;;;;;;;14.52;2.60;;;15.20;99.90;;;;;;5102290;28;20024;-73
2023/10/12 10:30:59;;;;;;;14.70;2.00;;;15.30;99.90;;;;;;5101458;28;20024;-74
2023/10/12 10:33:26;;;;;;;17.80;1.85;;;15.30;99.90;;;;;;5101100;28;20389;-74
2023/10/12 10:36:17;;;;;;;15.57;2.15;;;15.30;99.90;;;;;;5101205;28;20604;-73
2023/10/12 10:38:53;;;;;;;15.77;1.83;;;15.30;99.90;;;;;;5101159;28;20516;-74
2023/10/12 10:41:38;;;;;;;16.52;2.17;;;15.30;99.90;;;;;;5101638;28;20039;-73
2023/10/12 10:44:09;;;;;;;11.52;1.95;;;15.40;99.90;;;;;;5101033;28;20032;-74
2023/10/12 10:46:39;;;;;;;13.98;1.70;;;15.50;99.90;;;;;;5101717;28;20024;-73
2023/10/12 10:49:06;;;;;;;17.27;2.10;;;15.60;99.90;;;;;;5102383;28;20036;-71
2023/10/12 10:51:32;;;;;;;15.48;2.10;;;15.80;99.90;;;;;;5100769;28;20016;-73
2023/10/12 10:53:59;;;;;;;13.75;1.92;;;15.90;99.90;;;;;;5100500;28;20044;-73
2023/10/12 10:56:35;;;;;;;13.95;2.72;;;16.00;99.90;;;;;;5101885;28;20032;-72
2023/10/12 10:59:04;;;;;;;17.85;3.50;;;16.10;99.90;;;;;;5100379;28;20078;-74
2023/10/12 11:01:31;;;;;;;28.00;6.28;;;16.30;99.90;;;;;;5100666;28;20028;-72
2023/10/12 11:03:58;;;;;;;16.00;4.53;;;16.20;99.90;;;;;;5100642;28;20432;-73
2023/10/12 11:06:27;;;;;;;23.55;5.68;;;16.20;99.90;;;;;;5101580;28;20020;-72
2023/10/12 11:09:14;;;;;;;13.18;2.30;;;16.20;99.90;;;;;;5101674;28;20016;-74
2023/10/12 11:11:45;;;;;;;11.65;1.90;;;16.10;99.90;;;;;;5101971;28;20031;-73
2023/10/12 11:14:14;;;;;;;17.35;2.20;;;16.00;99.90;;;;;;5101309;28;20111;-73
2023/10/12 11:16:45;;;;;;;13.98;2.42;;;16.00;99.90;;;;;;5100721;28;20082;-73
2023/10/12 11:19:12;;;;;;;10.73;1.70;;;16.00;99.90;;;;;;5101865;28;20031;-73
2023/10/12 11:21:46;;;;;;;11.07;2.20;;;16.00;99.90;;;;;;5101379;28;20028;-73
2023/10/12 11:24:14;;;;;;;13.90;2.00;;;16.20;99.90;;;;;;5100743;28;20028;-73
2023/10/12 11:26:52;;;;;;;10.43;1.50;;;16.20;99.90;;;;;;5101496;28;20039;-75
2023/10/12 11:29:18;;;;;;;12.43;1.63;;;16.30;99.90;;;;;;5101854;28;20024;-73
2023/10/12 11:32:08;;;;;;;13.02;2.00;;;16.20;99.90;;;;;;5101821;28;20085;-72
2023/10/12 11:34:36;;;;;;;16.83;2.30;;;16.30;99.90;;;;;;5101428;28;20589;-74
2023/10/12 11:37:04;;;;;;;14.13;2.67;;;16.40;99.90;;;;;;5101553;28;20043;-74
2023/10/12 11:39:40;;;;;;;14.60;1.90;;;16.50;99.90;;;;;;5101469;28;20050;-73
2023/10/12 11:42:07;;;;;;;11.05;1.65;;;16.40;99.90;;;;;;5100899;28;20016;-75
2023/10/12 11:44:34;;;;;;;14.20;2.17;;;16.30;99.90;;;;;;5101522;28;20028;-73
2023/10/12 11:47:01;;;;;;;14.90;1.88;;;16.30;99.90;;;;;;5099943;28;20016;-76
2023/10/12 11:49:26;;;;;;;13.18;1.88;;;16.40;99.90;;;;;;5103168;28;20107;-72
2023/10/12 11:51:53;;;;;;;13.18;1.98;;;16.50;99.90;;;;;;5104107;28;20084;-73
2023/10/12 11:54:19;;;;;;;11.18;2.00;;;16.70;99.90;;;;;;5103700;28;20047;-77
2023/10/12 11:56:49;;;;;;;15.68;2.55;;;17.00;99.90;;;;;;5105237;28;21047;-72
2023/10/12 11:59:22;;;;;;;15.07;1.80;;;17.20;99.90;;;;;;5105398;28;20598;-73
2023/10/12 12:01:54;;;;;;;12.93;1.93;;;17.40;99.90;;;;;;5104007;28;20029;-76
2023/10/12 12:04:30;;;;;;;12.43;2.47;;;17.50;99.90;;;;;;5105302;28;20024;-73
2023/10/12 12:06:57;;;;;;;12.45;1.90;;;17.70;99.90;;;;;;5103909;28;20035;-73
2023/10/12 12:09:23;;;;;;;20.45;2.00;;;17.80;99.90;;;;;;5104022;28;20440;-74
2023/10/12 12:11:49;;;;;;;13.85;1.80;;;17.80;99.90;;;;;;5105011;28;20012;-74
2023/10/12 12:14:15;;;;;;;16.15;2.15;;;18.00;99.90;;;;;;5103942;28;20069;-72
2023/10/12 12:16:40;;;;;;;13.65;2.50;;;18.30;99.90;;;;;;5105012;28;20401;-74
2023/10/12 12:19:06;;;;;;;15.90;2.20;;;18.30;99.90;;;;;;5104743;28;20098;-74
2023/10/12 12:21:34;;;;;;;15.68;2.30;;;18.20;99.90;;;;;;5104979;28;20054;-73
2023/10/12 12:26:46;;;;;;;11.88;2.03;;;17.80;99.90;;;;;;5104802;28;20082;-74
2023/10/12 12:29:11;;;;;;;14.82;2.17;;;17.60;99.90;;;;;;5104945;28;20027;-73
2023/10/12 12:31:38;;;;;;;12.02;1.85;;;17.50;99.90;;;;;;5103273;28;20115;-73
2023/10/12 12:34:07;;;;;;;9.50;1.55;;;17.40;99.90;;;;;;5103394;28;20038;-74
2023/10/12 12:36:33;;;;;;;11.65;1.73;;;17.50;99.90;;;;;;5104566;28;20057;-73
2023/10/12 12:39:12;;;;;;;11.98;1.88;;;17.50;99.90;;;;;;5103992;28;20027;-72
2023/10/12 12:41:37;;;;;;;11.85;1.70;;;17.50;99.90;;;;;;5103085;28;20031;-73
2023/10/12 12:44:07;;;;;;;13.02;1.70;;;17.50;99.90;;;;;;5104504;28;20023;-72
2023/10/12 12:46:33;;;;;;;12.57;1.95;;;17.60;99.90;;;;;;5104206;28;20028;-74
2023/10/12 12:48:58;;;;;;;10.25;1.88;;;17.50;99.90;;;;;;5102390;28;20028;-73
2023/10/12 12:51:24;;;;;;;15.93;2.28;;;17.70;99.90;;;;;;5104381;28;20028;-73
2023/10/12 12:53:52;;;;;;;16.70;2.17;;;17.60;99.90;;;;;;5104011;28;20055;-73
2023/10/12 12:56:19;;;;;;;18.17;2.45;;;17.40;99.90;;;;;;5104253;28;20400;-73
2023/10/12 12:58:46;;;;;;;13.93;1.88;;;17.20;99.90;;;;;;5104343;28;20035;-75
2023/10/12 13:01:13;;;;;;;7.38;1.70;;;17.00;99.90;;;;;;5100623;28;20035;-72
2023/10/12 13:03:39;;;;;;;14.88;2.60;;;17.00;99.90;;;;;;5099569;28;20036;-71
2023/10/12 13:06:07;;;;;;;10.00;1.67;;;17.00;99.90;;;;;;5102680;28;20526;-72
2023/10/12 13:08:36;;;;;;;12.02;1.83;;;17.00;99.90;;;;;;5103532;28;20089;-73
2023/10/12 13:11:06;;;;;;;10.18;2.20;;;16.90;99.90;;;;;;5103776;28;20411;-73
2023/10/12 13:13:33;;;;;;;10.68;2.03;;;17.00;99.90;;;;;;5103773;28;20020;-70
2023/10/12 13:16:05;;;;;;;15.63;2.08;;;17.20;99.90;;;;;;5103487;28;20031;-72
2023/10/12 13:18:34;;;;;;;8.00;1.73;;;17.30;99.90;;;;;;5103828;28;20031;-75
2023/10/12 13:21:01;;;;;;;16.13;1.63;;;17.30;99.90;;;;;;5103772;28;20075;-77
2023/10/12 13:23:27;;;;;;;17.63;2.42;;;17.20;99.90;;;;;;5103448;28;20028;-75
2023/10/12 13:25:53;;;;;;;10.50;1.83;;;17.20;99.90;;;;;;5102565;28;20035;-74
2023/10/12 13:28:18;;;;;;;10.15;1.90;;;17.10;99.90;;;;;;5103383;28;20049;-73
2023/10/12 13:30:45;;;;;;;14.13;2.15;;;17.10;99.90;;;;;;5103718;28;20052;-73
2023/10/12 13:33:13;;;;;;;8.93;1.75;;;17.10;99.90;;;;;;5103407;28;20427;-72
2023/10/12 13:38:10;;;;;;;10.68;1.88;;;17.40;99.90;;;;;;5103225;28;20050;-72
2023/10/12 13:40:40;;;;;;;13.82;2.05;;;17.50;99.90;;;;;;5102781;28;20035;-73
2023/10/12 13:43:18;;;;;;;13.98;1.77;;;17.40;99.90;;;;;;5103077;28;20064;-73
2023/10/12 13:45:48;;;;;;;13.98;2.22;;;17.50;99.90;;;;;;5102219;28;20036;-72
2023/10/12 13:48:24;;;;;;;14.07;1.95;;;17.50;99.90;;;;;;5102800;28;20035;-72
2023/10/12 13:51:01;;;;;;;9.07;1.75;;;17.50;99.90;;;;;;5102785;28;20370;-72
2023/10/12 13:53:27;;;;;;;11.23;2.20;;;17.40;99.90;;;;;;5102729;28;20047;-73
2023/10/12 13:55:53;;;;;;;12.65;1.70;;;17.30;99.90;;;;;;5103142;28;20052;-71
2023/10/12 13:58:24;;;;;;;15.32;2.35;;;17.20;99.90;;;;;;5103070;28;20119;-75
2023/10/12 14:00:51;;;;;;;12.77;1.75;;;17.10;99.90;;;;;;5101864;28;20024;-72
2023/10/12 14:03:17;;;;;;;11.43;2.00;;;16.90;99.90;;;;;;5102803;28;20031;-75
2023/10/12 14:05:46;;;;;;;14.38;2.13;;;16.80;99.90;;;;;;5103165;28;20028;-74
2023/10/12 14:08:12;;;;;;;12.77;1.90;;;16.80;99.90;;;;;;5102637;28;20043;-71
2023/10/12 14:10:40;;;;;;;11.77;1.95;;;16.60;99.90;;;;;;5102779;28;20024;-71
2023/10/12 14:13:07;;;;;;;19.08;1.98;;;16.60;99.90;;;;;;5101634;28;20028;-74
2023/10/12 14:15:35;;;;;;;13.23;2.08;;;16.70;99.90;;;;;;5102702;28;20088;-73
2023/10/12 14:18:02;;;;;;;13.07;2.10;;;16.80;99.90;;;;;;5100971;28;20366;-72
2023/10/12 14:20:28;;;;;;;15.95;2.05;;;16.70;99.90;;;;;;5102122;28;20030;-74
2023/10/12 14:22:58;;;;;;;15.13;2.00;;;16.70;99.90;;;;;;5101050;28;20081;-73
2023/10/12 14:25:27;;;;;;;9.57;1.95;;;16.60;99.90;;;;;;5101434;28;20020;-74
2023/10/12 14:27:59;;;;;;;10.30;1.60;;;16.50;99.90;;;;;;5102458;28;20028;-74
2023/10/12 14:30:29;;;;;;;14.45;1.83;;;16.40;99.90;;;;;;5101547;28;20027;-73
2023/10/12 14:33:02;;;;;;;9.50;1.65;;;16.30;99.90;;;;;;5101945;28;20024;-74
2023/10/12 14:35:35;;;;;;;12.93;1.80;;;16.20;99.90;;;;;;5101916;28;20028;-75
2023/10/12 14:38:08;;;;;;;8.20;1.70;;;16.00;99.90;;;;;;5100281;28;20441;-74
2023/10/12 14:40:38;;;;;;;10.32;1.70;;;16.00;99.90;;;;;;5101797;28;20111;-73
2023/10/12 14:43:07;;;;;;;13.68;2.40;;;15.90;99.90;;;;;;5100919;28;20020;-71
2023/10/12 14:45:49;;;;;;;11.85;1.55;;;15.80;99.90;;;;;;5101679;28;20081;-73
2023/10/12 14:48:18;;;;;;;11.98;1.90;;;15.80;99.90;;;;;;5100806;28;20027;-71
2023/10/12 14:50:46;;;;;;;10.73;1.75;;;15.70;99.90;;;;;;5101368;28;20165;-73
2023/10/12 14:53:21;;;;;;;14.85;2.00;;;15.70;99.90;;;;;;5101910;28;20054;-73
2023/10/12 14:55:51;;;;;;;13.02;2.42;;;15.60;99.90;;;;;;5101844;28;20048;-71
2023/10/12 14:58:17;;;;;;;15.48;1.98;;;15.60;99.90;;;;;;5100707;28;20024;-74
2023/10/12 15:00:44;;;;;;;12.23;2.10;;;15.50;99.90;;;;;;5102165;28;20066;-72